PPIZ METAR and TAF weather

Enter ICAO airport designator
Station Type Date Time Source
PPIZ METAR 2019/02/23 00:34 UTC NOAA

PPIZ 230034Z AUTO 10022KT 2SM -SN BR OVC060 M07/M08 A2983 RMK AO2 VIS 1 1/4V3 P0000 FZRANO


Station Type Date Time Source
PPIZ Decoded METAR 2019/02/23 00:34 UTC NOAA

Point Lay, Point Lay LRRS Airport, AK, United States (PPIZ) 69-43N 163-00W
Feb 22, 2019 - 07:34 PM EST / 2019.02.23 0034 UTC
Wind: from the E (100 degrees) at 25 MPH (22 KT):0
Visibility: 2 mile(s):0
Sky conditions: overcast
Weather: light snow; mist
Precipitation last hour: A trace
Temperature: 19 F (-7 C)
Windchill: 1 F (-17 C):1
Dew Point: 17 F (-8 C)
Relative Humidity: 92%
Pressure (altimeter): 29.83 in. Hg (1010 hPa)
ob: PPIZ 230034Z AUTO 10022KT 2SM -SN BR OVC060 M07/M08 A2983 RMK AO2 VIS 1 1/4V3 P0000 FZRANO
cycle: 0

Station Type Date Time Source
PPIZ TAF UTC NOAA

Error!


Example: see airport list